Time;durP1;ratioP1;P1;durP2;ratioP2;P2;SDS_P1;SDS_P2;PMS_P1;PMS_P2;Temp;Humidity;BMP_temperature;BMP_pressure;BME280_temperature;BME280_humidity;BME280_pressure;Samples;Min_cycle;Max_cycle;Signal;HPM_P1;HPM_P2
2022/09/07 00:00:30;;;;;;;5.90;2.10;;;;;;;8.69;79.14;100560.91;104798;1275;60260;-76
2022/09/07 00:03:19;;;;;;;5.80;1.90;;;;;;;8.61;79.61;100559.29;104767;1274;73849;-75
2022/09/07 00:06:10;;;;;;;6.00;2.00;;;;;;;8.53;79.68;100557.28;105036;1274;67973;-73
2022/09/07 00:09:00;;;;;;;7.50;1.90;;;;;;;8.46;79.56;100558.79;104464;1275;71588;-75
2022/09/07 00:11:48;;;;;;;6.50;1.80;;;;;;;8.40;79.68;100559.33;104767;1274;60124;-74
2022/09/07 00:14:37;;;;;;;6.30;2.00;;;;;;;8.35;79.59;100556.22;104787;1274;61283;-76
2022/09/07 00:17:24;;;;;;;7.30;2.00;;;;;;;8.34;79.31;100549.92;104765;1274;74507;-74
2022/09/07 00:20:12;;;;;;;5.70;1.90;;;;;;;8.32;79.08;100544.20;105055;1274;66695;-76
2022/09/07 00:23:00;;;;;;;7.70;2.00;;;;;;;8.29;78.93;100539.77;105154;1274;72647;-75
2022/09/07 00:25:48;;;;;;;5.90;2.10;;;;;;;8.27;78.77;100539.02;104859;1274;59900;-76
2022/09/07 00:28:41;;;;;;;6.10;2.20;;;;;;;8.25;78.50;100530.48;104813;1275;61741;-75
2022/09/07 00:31:30;;;;;;;6.20;1.90;;;;;;;8.24;78.09;100531.98;104711;1274;71693;-74
2022/09/07 00:34:18;;;;;;;6.90;2.20;;;;;;;8.21;78.12;100527.88;104670;1275;67728;-75
2022/09/07 00:37:06;;;;;;;7.20;2.20;;;;;;;8.21;78.02;100531.45;104966;1274;74249;-75
2022/09/07 00:39:54;;;;;;;5.70;2.00;;;;;;;8.21;78.01;100529.69;104905;1273;59686;-75
2022/09/07 00:42:42;;;;;;;6.60;2.40;;;;;;;8.19;77.83;100529.59;104760;1274;59601;-75
2022/09/07 00:45:30;;;;;;;5.90;2.20;;;;;;;8.16;78.35;100527.30;104788;1274;74480;-75
2022/09/07 00:48:19;;;;;;;7.20;2.20;;;;;;;8.10;78.67;100525.90;104928;1274;66798;-76
2022/09/07 00:51:17;;;;;;;7.40;2.50;;;;;;;8.03;78.83;100521.90;104828;1274;71411;-75
2022/09/07 00:54:16;;;;;;;6.60;2.50;;;;;;;7.95;79.46;100520.95;104777;1274;61275;-76
2022/09/07 00:57:05;;;;;;;6.90;2.10;;;;;;;7.86;79.72;100525.73;104483;1274;60878;-76
2022/09/07 00:59:56;;;;;;;9.50;2.50;;;;;;;7.79;80.27;100529.67;104606;1274;73459;-74
2022/09/07 01:02:48;;;;;;;5.60;2.10;;;;;;;7.73;80.69;100532.33;104976;1274;67826;-74
2022/09/07 01:06:06;;;;;;;6.30;2.40;;;;;;;7.66;81.34;100534.83;103812;1274;1566159;-76
2022/09/07 01:09:00;;;;;;;6.90;2.40;;;;;;;7.60;81.72;100530.61;104944;1274;59775;-76
2022/09/07 01:11:51;;;;;;;6.30;2.10;;;;;;;7.53;81.88;100529.23;104801;1274;60736;-75
2022/09/07 01:14:44;;;;;;;7.90;2.50;;;;;;;7.46;82.29;100526.78;105182;1274;74432;-75
2022/09/07 01:18:16;;;;;;;6.50;2.20;;;;;;;7.39;82.58;100528.64;105143;1274;70014;-74
2022/09/07 01:21:24;;;;;;;8.40;2.40;;;;;;;7.28;82.77;100526.27;105039;1274;74352;-73
2022/09/07 01:24:57;;;;;;;7.70;2.50;;;;;;;7.21;82.92;100526.84;104991;1274;60076;-74
2022/09/07 01:28:06;;;;;;;5.70;2.30;;;;;;;7.13;83.13;100530.06;104773;1273;59576;-75
2022/09/07 01:31:00;;;;;;;6.10;2.10;;;;;;;7.07;83.39;100526.36;104810;1274;74765;-74
2022/09/07 01:34:22;;;;;;;7.20;2.30;;;;;;;7.03;83.62;100525.70;104992;1274;68145;-76
2022/09/07 01:37:35;;;;;;;12.40;3.80;;;;;;;6.97;83.98;100519.85;104844;1273;73360;-74
2022/09/07 01:40:53;;;;;;;6.60;2.00;;;;;;;6.93;84.39;100522.55;104981;1274;59549;-75
2022/09/07 01:44:02;;;;;;;7.00;2.60;;;;;;;6.87;84.40;100520.03;104750;1275;62040;-75
2022/09/07 01:47:33;;;;;;;6.40;2.30;;;;;;;6.82;84.51;100519.77;104771;1273;74848;-75
2022/09/07 01:50:51;;;;;;;6.10;2.10;;;;;;;6.75;84.55;100517.54;105188;1274;68932;-76
2022/09/07 01:53:49;;;;;;;6.90;2.40;;;;;;;6.68;85.01;100516.83;104614;1277;74432;-75
2022/09/07 01:56:43;;;;;;;6.50;2.40;;;;;;;6.65;85.11;100509.24;104893;1273;59987;-75
2022/09/07 01:59:42;;;;;;;8.50;2.50;;;;;;;6.62;85.35;100507.29;104463;1274;59713;-77
2022/09/07 02:03:03;;;;;;;6.00;2.40;;;;;;;6.60;85.43;100502.82;104464;1278;71721;-76
2022/09/07 02:06:09;;;;;;;5.90;2.30;;;;;;;6.59;85.55;100505.67;104462;1281;67997;-75
2022/09/07 02:09:11;;;;;;;7.70;2.50;;;;;;;6.57;85.41;100507.89;104213;1281;73288;-75
2022/09/07 02:12:05;;;;;;;7.30;2.60;;;;;;;6.55;85.64;100505.92;104432;1281;59706;-77
2022/09/07 02:15:01;;;;;;;6.00;2.60;;;;;;;6.51;85.86;100502.95;104407;1281;62114;-79
2022/09/07 02:17:57;;;;;;;6.20;2.40;;;;;;;6.46;85.67;100501.45;104447;1281;74673;-77
2022/09/07 02:20:50;;;;;;;6.10;2.00;;;;;;;6.42;85.88;100503.78;104450;1281;66759;-76
2022/09/07 02:23:53;;;;;;;6.90;2.20;;;;;;;6.37;86.18;100506.86;104349;1281;71423;-78
2022/09/07 02:26:47;;;;;;;6.20;2.40;;;;;;;6.34;86.20;100504.39;104466;1281;59857;-79
2022/09/07 02:29:35;;;;;;;6.30;2.30;;;;;;;6.31;86.29;100502.80;104355;1281;62246;-78
2022/09/07 02:32:23;;;;;;;6.40;2.40;;;;;;;6.30;86.36;100497.55;104472;1281;72432;-79
2022/09/07 02:35:12;;;;;;;8.70;2.50;;;;;;;6.29;86.45;100494.92;104037;1281;68355;-79
2022/09/07 02:38:03;;;;;;;6.40;2.20;;;;;;;6.28;86.58;100494.96;104196;1281;72881;-79
2022/09/07 02:40:54;;;;;;;6.40;2.20;;;;;;;6.27;86.65;100493.14;104035;1281;59725;-75
2022/09/07 02:43:42;;;;;;;7.70;2.70;;;;;;;6.24;86.37;100493.45;104854;1274;61678;-76
2022/09/07 02:46:49;;;;;;;6.00;2.20;;;;;;;6.21;86.52;100491.14;104753;1273;73301;-74
2022/09/07 02:50:17;;;;;;;5.90;2.40;;;;;;;6.18;86.54;100493.78;105006;1273;67981;-76
2022/09/07 02:53:50;;;;;;;6.00;2.30;;;;;;;6.16;86.70;100492.63;104937;1274;71506;-75
2022/09/07 02:57:09;;;;;;;5.90;2.40;;;;;;;6.14;86.97;100491.85;104512;1273;61314;-75
2022/09/07 03:00:24;;;;;;;6.30;2.50;;;;;;;6.12;86.83;100490.91;105151;1273;60496;-76
2022/09/07 03:03:40;;;;;;;6.40;2.40;;;;;;;6.11;87.36;100487.94;104931;1273;72330;-76
2022/09/07 03:06:37;;;;;;;6.40;2.30;;;;;;;6.11;87.01;100481.29;104812;1273;67923;-76
2022/09/07 03:09:31;;;;;;;7.50;2.50;;;;;;;6.10;87.32;100480.44;104919;1273;71561;-75
2022/09/07 03:12:22;;;;;;;7.50;2.50;;;;;;;6.07;87.22;100478.98;104743;1273;60182;-75
2022/09/07 03:15:13;;;;;;;6.60;2.70;;;;;;;6.05;87.33;100476.66;104815;1273;60572;-75
2022/09/07 03:18:02;;;;;;;6.70;2.50;;;;;;;6.01;87.43;100476.87;104787;1273;71972;-75
2022/09/07 03:20:50;;;;;;;6.30;2.40;;;;;;;5.97;87.35;100471.39;104766;1273;66778;-76
2022/09/07 03:23:38;;;;;;;7.60;2.50;;;;;;;5.95;87.77;100472.02;104658;1274;74454;-73
2022/09/07 03:26:27;;;;;;;7.40;2.40;;;;;;;5.94;87.89;100473.11;104519;1273;59663;-74
2022/09/07 03:29:15;;;;;;;6.80;2.40;;;;;;;5.94;88.03;100468.38;104779;1274;62039;-74
2022/09/07 03:32:03;;;;;;;6.70;2.30;;;;;;;5.93;87.81;100470.69;104799;1273;75193;-74
2022/09/07 03:34:51;;;;;;;6.40;2.40;;;;;;;5.91;87.97;100469.20;104978;1274;69109;-75
2022/09/07 03:37:39;;;;;;;6.30;2.70;;;;;;;5.90;87.96;100472.63;103264;1273;1003112;-75
2022/09/07 03:40:27;;;;;;;7.10;2.40;;;;;;;5.86;88.06;100473.54;105405;1273;59997;-77
2022/09/07 03:43:16;;;;;;;10.10;3.00;;;;;;;5.83;88.26;100475.65;104827;1273;59588;-76
2022/09/07 03:46:06;;;;;;;7.50;2.60;;;;;;;5.80;88.61;100478.40;105040;1273;73538;-77
2022/09/07 03:48:54;;;;;;;8.30;2.90;;;;;;;5.79;88.23;100483.59;104765;1273;67060;-76
2022/09/07 03:51:42;;;;;;;7.60;2.60;;;;;;;5.78;88.48;100486.59;104886;1274;72668;-75
2022/09/07 03:54:30;;;;;;;8.40;2.80;;;;;;;5.77;88.50;100487.73;105246;1273;60792;-80
2022/09/07 03:57:21;;;;;;;7.50;3.10;;;;;;;5.77;88.55;100492.84;102992;1273;1003979;-80
2022/09/07 04:00:10;;;;;;;7.20;2.80;;;;;;;5.77;88.78;100493.35;105061;1273;71674;-78
2022/09/07 04:03:01;;;;;;;6.40;2.80;;;;;;;5.74;88.78;100493.15;104963;1273;69464;-82
2022/09/07 04:05:50;;;;;;;6.30;2.60;;;;;;;5.74;88.98;100493.67;105192;1273;74154;-80
2022/09/07 04:08:39;;;;;;;7.50;2.70;;;;;;;5.73;88.76;100496.92;104975;1274;60297;-82
2022/09/07 04:11:27;;;;;;;6.70;2.80;;;;;;;5.71;88.97;100494.36;104862;1274;61889;-81
2022/09/07 04:14:16;;;;;;;7.00;2.50;;;;;;;5.72;88.90;100497.69;105148;1273;74810;-81
2022/09/07 04:17:04;;;;;;;6.60;2.30;;;;;;;5.73;88.90;100495.14;104972;1274;65575;-80
2022/09/07 04:19:53;;;;;;;7.20;2.70;;;;;;;5.77;88.75;100491.95;104933;1273;72754;-80
2022/09/07 04:22:42;;;;;;;7.30;3.10;;;;;;;5.82;88.75;100490.83;105154;1273;59656;-83
2022/09/07 04:25:30;;;;;;;7.00;2.60;;;;;;;5.85;88.41;100492.27;105059;1273;62085;-81
2022/09/07 04:28:20;;;;;;;8.40;2.90;;;;;;;5.86;88.41;100494.34;105267;1273;73294;-81
2022/09/07 04:31:08;;;;;;;9.30;3.10;;;;;;;5.86;88.20;100497.86;105041;1273;66863;-82
2022/09/07 04:33:56;;;;;;;8.60;3.30;;;;;;;5.88;88.30;100495.11;105065;1273;74155;-79
2022/09/07 04:36:44;;;;;;;8.90;3.00;;;;;;;5.90;88.55;100486.54;105121;1273;59835;-80
2022/09/07 04:39:32;;;;;;;8.30;3.20;;;;;;;5.95;88.60;100484.85;104999;1273;60461;-79
2022/09/07 04:42:20;;;;;;;11.80;3.40;;;;;;;6.03;88.45;100482.05;105060;1273;73622;-81
2022/09/07 04:45:09;;;;;;;11.20;3.10;;;;;;;6.10;88.51;100483.05;105081;1273;68066;-78
2022/09/07 04:47:57;;;;;;;8.30;3.10;;;;;;;6.21;88.49;100481.83;105068;1273;73881;-80
2022/09/07 04:50:45;;;;;;;8.20;2.90;;;;;;;6.32;88.52;100480.88;105153;1273;59723;-80
2022/09/07 04:53:35;;;;;;;8.60;3.20;;;;;;;6.44;88.10;100483.89;105056;1273;59971;-80
2022/09/07 04:56:24;;;;;;;8.10;3.00;;;;;;;6.54;87.57;100487.42;105076;1273;73031;-82
2022/09/07 04:59:12;;;;;;;9.50;2.70;;;;;;;6.63;87.52;100486.94;104304;1273;1003635;-81
2022/09/07 05:02:00;;;;;;;9.00;3.00;;;;;;;6.75;87.36;100482.21;105342;1273;74391;-81
2022/09/07 05:04:48;;;;;;;9.80;3.20;;;;;;;6.87;86.89;100479.48;105101;1273;61201;-80
2022/09/07 05:07:36;;;;;;;12.70;3.20;;;;;;;6.99;86.83;100477.90;105264;1273;61067;-81
2022/09/07 05:10:24;;;;;;;10.90;3.20;;;;;;;7.14;86.32;100478.85;105068;1274;73133;-81
2022/09/07 05:13:12;;;;;;;11.40;3.90;;;;;;;7.30;86.31;100477.79;105113;1273;69891;-81
2022/09/07 05:16:11;;;;;;;12.80;3.50;;;;;;;7.46;85.33;100469.27;105029;1273;71710;-81
2022/09/07 05:19:02;;;;;;;10.30;3.50;;;;;;;7.59;85.05;100455.42;105295;1273;59719;-82
2022/09/07 05:21:50;;;;;;;13.50;4.00;;;;;;;7.73;84.88;100450.34;104992;1274;60532;-81
2022/09/07 05:24:38;;;;;;;9.70;3.50;;;;;;;7.87;84.16;100453.09;105115;1273;72095;-82
2022/09/07 05:27:26;;;;;;;13.10;3.90;;;;;;;7.99;83.68;100452.36;105287;1273;68655;-81
2022/09/07 05:30:15;;;;;;;11.90;3.90;;;;;;;8.10;83.37;100446.02;105028;1273;72904;-82
2022/09/07 05:33:22;;;;;;;11.60;3.90;;;;;;;8.23;83.05;100445.08;105421;1273;59833;-82
2022/09/07 05:36:32;;;;;;;15.10;4.20;;;;;;;8.38;82.77;100436.33;105071;1273;61980;-82
2022/09/07 05:39:20;;;;;;;15.50;4.00;;;;;;;8.53;82.61;100433.67;104949;1274;73274;-81
2022/09/07 05:42:08;;;;;;;16.90;4.20;;;;;;;8.69;82.05;100433.02;105122;1273;66128;-81
2022/09/07 05:44:56;;;;;;;11.70;4.00;;;;;;;8.84;81.40;100432.23;105040;1273;74923;-81
2022/09/07 05:47:49;;;;;;;16.80;4.30;;;;;;;8.99;80.69;100426.46;105147;1274;59840;-85
2022/09/07 05:50:38;;;;;;;17.10;4.10;;;;;;;9.15;80.01;100422.23;105229;1274;61944;-84
2022/09/07 05:53:26;;;;;;;10.30;3.10;;;;;;;9.32;79.33;100424.84;105005;1276;74739;-81
2022/09/07 05:56:15;;;;;;;10.20;2.70;;;;;;;9.51;77.93;100428.75;104737;1276;67745;-81
2022/09/07 05:59:02;;;;;;;9.20;2.40;;;;;;;9.69;75.97;100431.40;104626;1276;73158;-82
2022/09/07 06:01:50;;;;;;;6.70;2.40;;;;;;;9.87;74.95;100432.66;103302;1276;1005842;-81
2022/09/07 06:04:38;;;;;;;7.70;2.40;;;;;;;10.03;74.80;100426.26;104547;1276;60968;-81
2022/09/07 06:07:27;;;;;;;7.70;2.10;;;;;;;10.16;74.38;100430.98;104653;1276;73653;-80
2022/09/07 06:10:17;;;;;;;6.60;1.80;;;;;;;10.28;72.25;100436.60;104785;1276;68599;-80
2022/09/07 06:13:25;;;;;;;7.50;2.20;;;;;;;10.45;71.16;100433.28;104716;1276;73023;-82
2022/09/07 06:16:15;;;;;;;7.60;2.00;;;;;;;10.65;70.51;100434.70;104774;1276;59734;-81
2022/09/07 06:19:06;;;;;;;5.90;1.70;;;;;;;10.91;69.68;100433.70;104816;1276;60242;-81
2022/09/07 06:21:54;;;;;;;6.70;2.20;;;;;;;11.31;67.66;100430.02;104986;1276;74734;-80
2022/09/07 06:24:42;;;;;;;5.80;1.80;;;;;;;12.43;65.80;100431.17;104855;1273;67069;-81
2022/09/07 06:27:30;;;;;;;6.50;2.00;;;;;;;14.52;60.35;100425.69;105261;1273;73853;-81
2022/09/07 06:30:19;;;;;;;6.90;1.80;;;;;;;16.69;54.65;100413.53;105168;1273;59587;-80
2022/09/07 06:33:08;;;;;;;6.30;1.70;;;;;;;18.64;49.59;100404.21;105116;1273;60864;-81
2022/09/07 06:36:03;;;;;;;7.10;1.60;;;;;;;20.45;43.43;100398.34;105046;1273;72277;-80
2022/09/07 06:38:57;;;;;;;6.50;1.70;;;;;;;22.15;39.86;100399.44;104886;1273;68397;-77
2022/09/07 06:41:45;;;;;;;8.10;1.50;;;;;;;23.63;36.65;100391.23;104975;1273;71651;-78
2022/09/07 06:44:49;;;;;;;6.10;1.60;;;;;;;24.95;33.92;100392.48;105223;1273;59773;-77
2022/09/07 06:47:37;;;;;;;9.40;1.50;;;;;;;25.95;31.34;100393.20;104972;1273;61909;-79
2022/09/07 06:50:26;;;;;;;5.30;1.20;;;;;;;26.74;29.40;100395.84;105463;1273;71985;-78
2022/09/07 06:53:14;;;;;;;5.70;1.60;;;;;;;27.43;29.32;100398.55;105190;1273;69603;-77
2022/09/07 06:56:23;;;;;;;7.10;1.30;;;;;;;28.34;27.60;100390.70;105085;1273;72818;-79
2022/09/07 06:59:11;;;;;;;7.20;1.40;;;;;;;29.13;26.48;100395.10;104953;1273;59673;-78
2022/09/07 07:01:59;;;;;;;7.70;1.60;;;;;;;29.63;25.00;100397.69;104929;1273;62335;-78
2022/09/07 07:04:49;;;;;;;8.90;1.50;;;;;;;29.89;24.36;100401.80;104899;1273;73662;-78
2022/09/07 07:07:37;;;;;;;6.50;1.60;;;;;;;30.35;23.82;100395.77;105022;1273;69880;-78
2022/09/07 07:10:25;;;;;;;7.40;1.60;;;;;;;30.43;23.17;100390.75;104898;1273;74470;-79
2022/09/07 07:13:13;;;;;;;9.60;1.60;;;;;;;30.64;22.72;100391.39;104958;1273;59818;-78
2022/09/07 07:16:11;;;;;;;6.80;1.30;;;;;;;30.82;22.15;100393.39;105283;1273;60592;-78
2022/09/07 07:18:59;;;;;;;7.80;1.40;;;;;;;30.88;21.91;100396.94;105037;1273;71743;-78
2022/09/07 07:21:47;;;;;;;7.70;1.70;;;;;;;30.97;21.78;100394.70;105345;1273;68546;-78
2022/09/07 07:24:55;;;;;;;8.80;1.50;;;;;;;31.33;21.65;100398.70;104956;1273;72823;-78
2022/09/07 07:27:47;;;;;;;7.50;1.40;;;;;;;31.48;21.43;100396.91;104948;1272;59643;-77
2022/09/07 07:30:35;;;;;;;8.60;1.60;;;;;;;31.77;21.11;100400.58;105125;1273;61174;-76
2022/09/07 07:33:27;;;;;;;6.80;2.10;;;;;;;32.15;21.63;100392.98;105022;1273;74760;-77
2022/09/07 07:36:25;;;;;;;6.70;1.80;;;;;;;32.68;21.11;100393.46;105279;1273;68022;-77
2022/09/07 07:39:13;;;;;;;8.30;1.60;;;;;;;32.97;20.68;100391.62;105271;1273;72922;-78
2022/09/07 07:42:21;;;;;;;7.50;1.40;;;;;;;33.00;20.26;100395.50;104968;1273;59630;-79
2022/09/07 07:45:10;;;;;;;5.70;1.40;;;;;;;32.88;20.12;100395.40;104953;1273;59704;-76
2022/09/07 07:48:21;;;;;;;7.00;1.30;;;;;;;32.78;20.28;100393.87;105066;1273;71704;-78
2022/09/07 07:51:14;;;;;;;7.30;1.50;;;;;;;32.76;20.40;100389.98;104936;1273;69585;-77
2022/09/07 07:54:02;;;;;;;5.80;1.20;;;;;;;32.58;20.42;100386.40;104845;1273;73001;-76
2022/09/07 07:56:51;;;;;;;6.90;1.50;;;;;;;32.46;20.30;100387.03;104956;1273;59682;-75
2022/09/07 07:59:39;;;;;;;7.80;1.40;;;;;;;32.47;21.06;100379.45;104759;1274;60400;-77
2022/09/07 08:02:26;;;;;;;5.50;1.30;;;;;;;32.80;20.61;100384.30;104919;1273;72092;-75
2022/09/07 08:05:15;;;;;;;5.50;1.40;;;;;;;32.93;20.41;100387.35;105322;1273;69406;-77
2022/09/07 08:08:03;;;;;;;6.10;1.30;;;;;;;33.17;20.01;100382.32;104937;1273;72167;-77
2022/09/07 08:10:51;;;;;;;5.80;1.20;;;;;;;33.19;20.22;100376.17;105331;1273;59669;-78
2022/09/07 08:13:41;;;;;;;8.30;1.80;;;;;;;33.34;20.32;100372.58;105057;1273;60994;-78
2022/09/07 08:16:29;;;;;;;6.70;1.30;;;;;;;33.65;19.76;100378.27;105402;1273;73371;-77
2022/09/07 08:19:17;;;;;;;6.40;1.60;;;;;;;33.92;19.53;100383.69;105266;1273;68045;-75
2022/09/07 08:22:07;;;;;;;6.60;1.20;;;;;;;34.15;19.00;100380.60;105173;1273;72630;-76
2022/09/07 08:24:55;;;;;;;5.90;1.30;;;;;;;34.15;18.79;100372.48;105037;1273;60266;-76
2022/09/07 08:27:43;;;;;;;7.60;1.60;;;;;;;34.22;18.96;100373.73;105011;1273;59631;-74
2022/09/07 08:30:31;;;;;;;6.30;1.30;;;;;;;34.24;19.36;100375.83;105242;1273;73094;-75
2022/09/07 08:33:19;;;;;;;6.30;1.40;;;;;;;34.26;19.22;100377.12;104956;1273;67853;-76
2022/09/07 08:36:18;;;;;;;8.30;1.40;;;;;;;34.14;19.38;100374.80;105373;1273;71347;-76
2022/09/07 08:39:06;;;;;;;6.50;1.60;;;;;;;34.22;19.02;100373.12;105153;1273;59536;-75
2022/09/07 08:41:57;;;;;;;7.70;1.40;;;;;;;34.25;19.16;100374.80;105004;1273;60501;-75
2022/09/07 08:44:59;;;;;;;8.50;1.70;;;;;;;34.19;19.01;100378.35;105120;1273;72077;-76
2022/09/07 08:47:51;;;;;;;8.10;1.70;;;;;;;34.17;19.20;100375.25;105099;1273;68723;-77
2022/09/07 08:50:59;;;;;;;7.70;1.70;;;;;;;34.28;18.69;100366.86;105223;1273;72645;-76
2022/09/07 08:53:49;;;;;;;9.90;2.00;;;;;;;34.33;18.96;100371.92;104975;1273;59669;-74
2022/09/07 08:56:44;;;;;;;8.60;1.80;;;;;;;34.17;18.54;100371.45;104889;1273;59695;-76
2022/09/07 09:00:13;;;;;;;9.70;2.20;;;;;;;34.23;18.83;100367.77;104978;1273;71952;-77
2022/09/07 09:03:01;;;;;;;8.60;2.20;;;;;;;34.20;19.05;100368.14;104965;1273;69579;-76
2022/09/07 09:06:46;;;;;;;7.20;2.10;;;;;;;34.11;19.04;100366.99;105156;1273;71564;-77
2022/09/07 09:09:37;;;;;;;9.40;2.70;;;;;;;34.04;18.78;100369.13;105137;1274;59669;-77
2022/09/07 09:13:02;;;;;;;7.40;2.70;;;;;;;34.09;18.77;100367.66;105154;1273;60265;-77
2022/09/07 09:16:18;;;;;;;9.80;2.60;;;;;;;34.24;19.04;100358.61;104949;1273;72006;-77
2022/09/07 09:19:50;;;;;;;11.80;2.80;;;;;;;34.25;18.60;100352.77;105140;1273;68911;-78
2022/09/07 09:22:38;;;;;;;8.70;2.50;;;;;;;34.29;18.19;100351.79;105137;1273;73909;-76
2022/09/07 09:25:34;;;;;;;10.20;2.60;;;;;;;34.37;18.58;100352.48;105035;1274;59827;-76
2022/09/07 09:28:22;;;;;;;9.60;2.20;;;;;;;34.25;18.53;100348.95;105004;1273;60248;-78
2022/09/07 09:31:22;;;;;;;13.70;2.30;;;;;;;34.21;18.57;100345.17;104957;1273;71668;-77
2022/09/07 09:34:13;;;;;;;7.90;2.10;;;;;;;34.19;18.90;100340.87;105046;1273;68453;-77
2022/09/07 09:37:01;;;;;;;9.10;2.20;;;;;;;34.23;18.52;100337.29;105000;1273;74453;-74
2022/09/07 09:39:57;;;;;;;9.80;1.90;;;;;;;34.10;18.62;100336.46;104921;1273;59880;-77
2022/09/07 09:43:02;;;;;;;8.60;1.90;;;;;;;33.99;18.87;100332.83;104813;1273;60997;-77
2022/09/07 09:45:56;;;;;;;8.10;1.80;;;;;;;34.00;18.88;100325.88;104891;1272;71327;-77
2022/09/07 09:49:04;;;;;;;6.20;1.90;;;;;;;34.15;18.96;100323.07;105352;1273;69985;-75
2022/09/07 09:51:56;;;;;;;8.00;2.00;;;;;;;34.31;18.58;100323.30;105062;1273;70831;-75
2022/09/07 09:55:05;;;;;;;9.80;1.80;;;;;;;34.61;18.19;100323.05;105122;1274;59900;-75
2022/09/07 09:58:44;;;;;;;8.70;1.80;;;;;;;34.83;17.98;100314.04;105179;1273;60532;-76
2022/09/07 10:01:52;;;;;;;11.30;2.10;;;;;;;35.00;17.82;100307.14;105033;1273;71696;-76
2022/09/07 10:05:19;;;;;;;10.60;2.10;;;;;;;35.23;17.20;100306.67;105194;1273;66827;-76
2022/09/07 10:08:29;;;;;;;6.80;1.60;;;;;;;35.27;17.40;100306.25;104898;1274;74190;-76
2022/09/07 10:11:17;;;;;;;8.70;2.10;;;;;;;35.47;17.37;100301.41;105207;1274;60213;-75
2022/09/07 10:14:26;;;;;;;9.20;1.70;;;;;;;35.37;17.06;100302.70;105079;1273;61425;-74
2022/09/07 10:17:30;;;;;;;6.10;1.50;;;;;;;35.34;17.25;100294.61;104985;1273;73232;-79
2022/09/07 10:20:18;;;;;;;8.10;1.50;;;;;;;35.38;17.37;100296.49;105670;1273;69449;-77
2022/09/07 10:23:22;;;;;;;9.10;1.80;;;;;;;35.27;17.44;100293.90;104989;1273;71322;-74
2022/09/07 10:26:33;;;;;;;7.70;1.60;;;;;;;35.14;17.54;100291.42;104998;1273;59941;-74
2022/09/07 10:29:24;;;;;;;9.40;1.70;;;;;;;34.58;17.79;100289.89;105289;1273;60594;-72
2022/09/07 10:32:47;;;;;;;7.10;2.00;;;;;;;34.15;19.03;100290.48;105030;1273;73906;-77
2022/09/07 10:36:02;;;;;;;7.60;1.60;;;;;;;33.88;19.27;100288.50;104936;1273;68029;-77
2022/09/07 10:39:05;;;;;;;10.00;1.80;;;;;;;33.60;19.80;100287.41;105045;1273;73021;-76
2022/09/07 10:42:38;;;;;;;7.20;1.70;;;;;;;33.34;20.25;100290.57;104913;1273;59592;-75
2022/09/07 10:46:29;;;;;;;7.90;1.60;;;;;;;33.26;20.13;100294.96;105172;1273;59867;-77
2022/09/07 10:50:01;;;;;;;8.40;1.60;;;;;;;33.26;19.36;100295.46;105556;1273;75007;-76
2022/09/07 10:53:15;;;;;;;6.00;1.60;;;;;;;32.98;19.23;100294.13;104868;1273;67994;-76
2022/09/07 10:56:32;;;;;;;4.60;1.00;;;;;;;32.62;19.19;100291.54;104942;1273;73435;-76
2022/09/07 10:59:47;;;;;;;6.10;1.00;;;;;;;32.48;18.47;100290.45;104580;1276;60199;-77
2022/09/07 11:03:27;;;;;;;5.80;1.40;;;;;;;32.36;19.71;100286.26;104891;1273;61412;-78
2022/09/07 11:06:51;;;;;;;6.60;1.40;;;;;;;32.38;20.97;100281.60;105196;1273;73490;-76
2022/09/07 11:10:18;;;;;;;7.10;1.40;;;;;;;32.14;20.22;100284.40;104417;1281;66834;-77
2022/09/07 11:13:10;;;;;;;5.70;1.40;;;;;;;31.68;20.05;100282.70;104536;1281;72892;-79
2022/09/07 11:16:04;;;;;;;6.80;1.40;;;;;;;31.63;20.39;100276.49;104292;1281;59727;-76
2022/09/07 11:19:09;;;;;;;5.90;1.50;;;;;;;31.72;20.59;100273.92;104333;1281;60346;-77
2022/09/07 11:22:20;;;;;;;6.60;1.30;;;;;;;31.55;20.79;100273.95;104362;1281;74544;-77
2022/09/07 11:25:26;;;;;;;7.40;1.40;;;;;;;31.49;20.40;100271.77;104304;1281;69594;-77
2022/09/07 11:28:35;;;;;;;6.60;1.40;;;;;;;31.34;20.53;100271.83;104396;1281;72876;-76
2022/09/07 11:32:08;;;;;;;6.10;1.50;;;;;;;31.03;20.80;100273.80;104342;1281;59791;-75
2022/09/07 11:35:20;;;;;;;5.80;1.30;;;;;;;30.69;20.86;100265.66;103938;1287;59584;-74
2022/09/07 11:38:24;;;;;;;5.90;1.60;;;;;;;30.36;21.99;100264.84;104085;1287;73812;-76
2022/09/07 11:41:26;;;;;;;5.30;1.40;;;;;;;30.09;22.24;100267.87;103950;1287;66656;-78
2022/09/07 11:44:28;;;;;;;7.00;1.30;;;;;;;29.71;22.05;100261.41;103969;1287;72984;-77
2022/09/07 11:47:35;;;;;;;6.00;1.60;;;;;;;29.14;22.81;100265.91;104424;1281;59694;-76
2022/09/07 11:50:23;;;;;;;7.30;2.00;;;;;;;28.67;24.10;100262.90;104136;1281;59664;-76
2022/09/07 11:53:23;;;;;;;6.30;1.50;;;;;;;28.20;24.61;100264.78;104045;1281;73093;-75
2022/09/07 11:56:25;;;;;;;8.10;1.50;;;;;;;27.86;25.16;100266.28;104240;1281;69403;-77
2022/09/07 11:59:41;;;;;;;6.80;1.40;;;;;;;27.54;25.58;100262.81;104658;1279;71984;-76
2022/09/07 12:02:41;;;;;;;5.90;1.60;;;;;;;27.23;26.37;100254.69;104303;1279;59705;-76
2022/09/07 12:06:13;;;;;;;5.30;1.40;;;;;;;26.99;26.89;100250.91;104532;1280;59866;-75
2022/09/07 12:09:19;;;;;;;7.50;1.40;;;;;;;26.65;27.20;100254.69;104550;1279;75078;-78
2022/09/07 12:12:26;;;;;;;5.70;1.30;;;;;;;26.02;27.40;100250.06;104740;1273;69512;-76
2022/09/07 12:16:18;;;;;;;5.60;1.20;;;;;;;25.31;28.06;100249.64;104810;1273;72980;-76
2022/09/07 12:19:23;;;;;;;7.70;1.30;;;;;;;24.39;30.32;100251.44;104915;1273;60102;-79
2022/09/07 12:22:21;;;;;;;6.50;1.30;;;;;;;23.81;31.57;100254.73;105069;1273;62179;-77
2022/09/07 12:25:17;;;;;;;7.60;1.30;;;;;;;23.27;32.32;100254.08;104890;1273;72290;-76
2022/09/07 12:28:15;;;;;;;6.30;1.40;;;;;;;22.86;33.68;100252.39;104809;1273;68109;-77
2022/09/07 12:31:11;;;;;;;6.50;1.20;;;;;;;22.53;34.00;100251.62;105088;1273;71664;-77
2022/09/07 12:34:34;;;;;;;4.40;1.10;;;;;;;22.30;33.86;100251.06;104906;1273;59657;-76
2022/09/07 12:37:25;;;;;;;6.20;1.40;;;;;;;22.09;34.72;100248.04;104510;1281;60874;-75
2022/09/07 12:40:29;;;;;;;5.40;1.20;;;;;;;21.90;34.73;100247.30;104325;1282;73110;-75
2022/09/07 12:43:17;;;;;;;5.20;1.40;;;;;;;21.57;34.64;100242.68;104347;1282;68452;-76
2022/09/07 12:46:18;;;;;;;5.00;1.30;;;;;;;21.36;35.75;100248.27;104335;1281;71534;-77
2022/09/07 12:49:12;;;;;;;5.00;1.10;;;;;;;21.23;35.16;100242.80;104522;1281;59579;-75
2022/09/07 12:52:14;;;;;;;4.70;1.00;;;;;;;21.12;35.21;100239.92;104354;1281;59895;-76
2022/09/07 12:55:44;;;;;;;4.50;1.10;;;;;;;21.00;35.55;100235.58;104665;1281;74696;-75
2022/09/07 12:59:05;;;;;;;5.50;1.20;;;;;;;20.87;35.39;100232.58;104443;1281;69340;-76
2022/09/07 13:02:22;;;;;;;4.80;1.20;;;;;;;20.74;35.28;100237.86;104331;1281;74495;-76
2022/09/07 13:06:08;;;;;;;6.00;1.20;;;;;;;20.63;36.03;100233.27;103017;1282;1608098;-78
2022/09/07 13:09:13;;;;;;;5.00;1.20;;;;;;;20.51;36.32;100231.56;104224;1282;60320;-74
2022/09/07 13:12:20;;;;;;;5.90;1.40;;;;;;;20.48;36.51;100230.46;104622;1273;73298;-76
2022/09/07 13:15:47;;;;;;;5.00;1.10;;;;;;;20.36;35.94;100226.52;104881;1272;66766;-74
2022/09/07 13:18:36;;;;;;;4.90;1.20;;;;;;;20.23;36.02;100226.48;104867;1273;73216;-75
2022/09/07 13:21:39;;;;;;;5.20;1.20;;;;;;;20.11;35.85;100223.91;104869;1273;59747;-75
2022/09/07 13:24:46;;;;;;;5.50;1.30;;;;;;;19.98;36.42;100222.74;104886;1273;62082;-73
2022/09/07 13:27:52;;;;;;;5.20;1.20;;;;;;;19.85;37.20;100223.31;104842;1273;74865;-75
2022/09/07 13:31:23;;;;;;;7.00;1.40;;;;;;;19.71;37.71;100222.52;104686;1273;67542;-77
2022/09/07 13:34:32;;;;;;;6.00;1.30;;;;;;;19.65;38.60;100224.48;104903;1273;73493;-78
2022/09/07 13:37:24;;;;;;;5.20;1.40;;;;;;;19.77;38.32;100221.70;104942;1273;59594;-75
2022/09/07 13:40:22;;;;;;;5.60;1.10;;;;;;;19.81;38.39;100221.30;104840;1273;59672;-77
2022/09/07 13:43:22;;;;;;;5.90;1.20;;;;;;;19.88;38.08;100223.19;104951;1273;73067;-77